createdAt,value
2018-06-19T00:01:50.831Z,92.80
2018-06-19T00:04:28.073Z,94.80
2018-06-19T00:07:06.030Z,95.20
2018-06-19T00:09:43.602Z,93.20
2018-06-19T00:12:20.851Z,93.80
2018-06-19T00:14:58.007Z,94.00
2018-06-19T00:17:35.839Z,94.20
2018-06-19T00:20:14.403Z,94.50
2018-06-19T00:22:52.040Z,94.10
2018-06-19T00:25:29.144Z,93.90
2018-06-19T00:28:05.921Z,94.10
2018-06-19T00:30:43.976Z,93.90
2018-06-19T00:33:20.640Z,94.00
2018-06-19T00:35:58.879Z,93.90
2018-06-19T00:38:36.862Z,94.20
2018-06-19T00:41:15.302Z,93.70
2018-06-19T00:43:59.241Z,93.20
2018-06-19T00:46:38.031Z,93.40
2018-06-19T00:49:16.708Z,93.60
2018-06-19T00:51:59.267Z,93.60
2018-06-19T00:54:36.719Z,93.60
2018-06-19T00:57:13.892Z,93.50
2018-06-19T00:59:51.930Z,93.40
2018-06-19T01:02:29.618Z,93.50
2018-06-19T01:05:06.774Z,92.90
2018-06-19T01:07:44.040Z,93.50
2018-06-19T01:10:21.436Z,93.40
2018-06-19T01:12:58.224Z,93.50
2018-06-19T01:15:35.105Z,93.60
2018-06-19T01:18:12.058Z,93.70
2018-06-19T01:20:49.161Z,93.90
2018-06-19T01:23:26.112Z,95.40
2018-06-19T01:26:04.312Z,96.40
2018-06-19T01:28:41.088Z,97.00
2018-06-19T01:31:21.992Z,97.20
2018-06-19T01:33:59.092Z,97.10
2018-06-19T01:36:36.114Z,97.20
2018-06-19T01:39:13.015Z,97.20
2018-06-19T01:41:50.212Z,97.20
2018-06-19T01:44:26.985Z,97.20
2018-06-19T01:47:05.367Z,97.40
2018-06-19T01:49:41.731Z,97.40
2018-06-19T01:54:55.542Z,98.30
2018-06-19T01:57:32.873Z,98.40
2018-06-19T02:00:10.060Z,98.60
2018-06-19T02:02:46.639Z,95.80
2018-06-19T02:05:23.551Z,94.90
2018-06-19T02:08:00.673Z,95.20
2018-06-19T02:10:37.570Z,95.70
2018-06-19T02:13:14.332Z,96.20
2018-06-19T02:15:51.204Z,96.40
2018-06-19T02:18:28.203Z,96.40
2018-06-19T02:21:05.233Z,97.00
2018-06-19T02:23:42.269Z,97.00
2018-06-19T02:26:19.410Z,96.90
2018-06-19T02:28:56.066Z,96.90
2018-06-19T02:31:33.226Z,97.00
2018-06-19T02:34:09.978Z,97.40
2018-06-19T02:36:47.121Z,97.10
2018-06-19T02:39:23.896Z,96.40
2018-06-19T02:42:00.874Z,96.40
2018-06-19T02:44:38.160Z,96.10
2018-06-19T02:47:15.189Z,96.00
2018-06-19T02:52:29.459Z,95.70
2018-06-19T02:55:06.290Z,95.60
2018-06-19T02:57:43.422Z,95.50
2018-06-19T03:00:20.411Z,95.10
2018-06-19T03:02:57.239Z,94.60
2018-06-19T03:05:34.312Z,94.40
2018-06-19T03:08:11.331Z,94.20
2018-06-19T03:10:48.318Z,94.40
2018-06-19T03:13:35.078Z,94.80
2018-06-19T03:16:12.056Z,94.70
2018-06-19T03:18:49.245Z,94.80
2018-06-19T03:21:26.150Z,94.60
2018-06-19T03:24:03.003Z,93.60
2018-06-19T03:26:39.895Z,93.10
2018-06-19T03:29:18.187Z,93.00
2018-06-19T03:31:55.537Z,92.50
2018-06-19T03:34:32.795Z,92.70
2018-06-19T03:37:09.972Z,92.40
2018-06-19T03:39:48.011Z,92.10
2018-06-19T03:42:26.104Z,92.50
2018-06-19T03:47:39.793Z,92.20
2018-06-19T03:50:16.944Z,92.40
2018-06-19T03:52:54.715Z,92.60
2018-06-19T03:55:31.787Z,92.70
2018-06-19T03:58:08.620Z,92.30
2018-06-19T04:00:45.626Z,92.30
2018-06-19T04:03:23.585Z,91.90
2018-06-19T04:06:00.517Z,91.30
2018-06-19T04:08:37.450Z,91.00
2018-06-19T04:11:14.637Z,90.90
2018-06-19T04:13:52.771Z,91.10
2018-06-19T04:16:30.180Z,91.40
2018-06-19T04:19:07.172Z,91.70
2018-06-19T04:24:20.869Z,92.10
2018-06-19T04:26:58.424Z,92.10
2018-06-19T04:29:35.725Z,91.90
2018-06-19T04:32:12.946Z,92.00
2018-06-19T04:34:49.628Z,91.90
2018-06-19T04:37:37.621Z,92.20
2018-06-19T04:40:14.674Z,92.40
2018-06-19T04:42:51.661Z,92.40
2018-06-19T04:48:05.444Z,92.30
2018-06-19T04:50:42.714Z,92.10
2018-06-19T04:53:19.782Z,91.80
2018-06-19T04:55:56.622Z,91.80
2018-06-19T04:58:33.508Z,91.80
2018-06-19T05:03:46.836Z,92.00
2018-06-19T05:06:23.940Z,92.00
2018-06-19T05:11:38.035Z,91.90
2018-06-19T05:14:15.258Z,91.80
2018-06-19T05:16:51.753Z,91.90
2018-06-19T05:19:29.226Z,91.90
2018-06-19T05:22:06.654Z,92.00
2018-06-19T05:24:44.121Z,92.20
2018-06-19T05:27:20.519Z,92.40
2018-06-19T05:29:58.412Z,92.50
2018-06-19T05:32:49.352Z,92.60
2018-06-19T05:35:25.923Z,92.70
2018-06-19T05:38:02.959Z,92.90
2018-06-19T05:40:40.843Z,92.90
2018-06-19T05:43:17.936Z,93.10
2018-06-19T05:45:54.971Z,93.00
2018-06-19T05:48:32.240Z,93.30
2018-06-19T05:51:09.682Z,92.80
2018-06-19T05:53:46.797Z,92.90
2018-06-19T05:56:23.838Z,92.90
2018-06-19T05:59:01.234Z,93.00
2018-06-19T06:01:38.024Z,92.90
2018-06-19T06:04:14.959Z,93.00
2018-06-19T06:06:51.878Z,93.00
2018-06-19T06:09:28.933Z,92.90
2018-06-19T06:12:06.688Z,92.80
2018-06-19T06:14:43.344Z,92.90
2018-06-19T06:17:20.331Z,92.90
2018-06-19T06:22:33.492Z,92.80
2018-06-19T06:25:10.145Z,92.70
2018-06-19T06:27:47.365Z,92.60
2018-06-19T06:30:24.220Z,92.80
2018-06-19T06:33:01.257Z,92.90
2018-06-19T06:35:38.463Z,92.80
2018-06-19T06:38:16.364Z,92.70
2018-06-19T06:40:53.359Z,92.60
2018-06-19T06:43:30.448Z,92.60
2018-06-19T06:46:07.049Z,92.70
2018-06-19T06:48:43.993Z,92.70
2018-06-19T06:51:20.910Z,92.40
2018-06-19T06:54:04.496Z,92.40
2018-06-19T06:56:41.421Z,92.40
2018-06-19T06:59:18.564Z,92.40
2018-06-19T07:01:55.476Z,92.30
2018-06-19T07:04:33.127Z,92.30
2018-06-19T07:07:11.583Z,92.30
2018-06-19T07:09:49.031Z,92.50
2018-06-19T07:12:26.275Z,92.20
2018-06-19T07:15:03.987Z,92.10
2018-06-19T07:17:41.384Z,91.90
2018-06-19T07:20:18.675Z,91.80
2018-06-19T07:22:55.484Z,91.40
2018-06-19T07:25:33.125Z,91.20
2018-06-19T07:28:13.633Z,89.10
2018-06-19T07:30:50.974Z,84.30
2018-06-19T07:36:04.373Z,78.60
2018-06-19T07:38:42.066Z,75.60
2018-06-19T07:41:18.866Z,72.50
2018-06-19T07:43:55.926Z,71.60
2018-06-19T07:46:32.893Z,69.10
2018-06-19T07:49:09.684Z,67.90
2018-06-19T07:51:47.588Z,64.50
2018-06-19T07:54:24.524Z,61.20
2018-06-19T07:59:38.299Z,59.80
2018-06-19T08:02:21.980Z,58.50
2018-06-19T08:04:59.679Z,57.00
2018-06-19T08:07:40.348Z,56.80
2018-06-19T08:10:17.514Z,58.90
2018-06-19T08:12:54.539Z,60.00
2018-06-19T08:15:31.464Z,59.10
2018-06-19T08:18:08.560Z,56.30
2018-06-19T08:20:45.092Z,55.50
2018-06-19T08:23:22.483Z,56.20
2018-06-19T08:26:00.771Z,56.00
2018-06-19T08:28:38.401Z,54.70
2018-06-19T08:31:15.264Z,54.60
2018-06-19T08:33:52.297Z,54.30
2018-06-19T08:36:29.365Z,55.70
2018-06-19T08:39:09.754Z,56.20
2018-06-19T08:41:47.043Z,56.80
2018-06-19T08:44:23.912Z,58.00
2018-06-19T08:47:00.807Z,57.50
2018-06-19T08:49:37.893Z,56.90
2018-06-19T08:54:51.524Z,55.20
2018-06-19T08:57:28.575Z,55.20
2018-06-19T09:00:05.691Z,53.90
2018-06-19T09:02:42.636Z,52.80
2018-06-19T09:05:20.185Z,52.10
2018-06-19T09:07:57.144Z,53.10
2018-06-19T09:10:33.788Z,54.30
2018-06-19T09:13:10.795Z,54.30
2018-06-19T09:15:48.001Z,54.20
2018-06-19T09:18:24.690Z,52.50
2018-06-19T09:21:01.636Z,53.40
2018-06-19T09:23:38.922Z,53.60
2018-06-19T09:26:16.620Z,52.70
2018-06-19T09:28:53.450Z,52.20
2018-06-19T09:31:30.643Z,52.90
2018-06-19T09:34:07.685Z,52.50
2018-06-19T09:36:45.545Z,51.10
2018-06-19T09:39:22.846Z,49.00
2018-06-19T09:42:00.894Z,47.40
2018-06-19T09:44:37.878Z,47.90
2018-06-19T09:47:15.202Z,49.70
2018-06-19T09:49:51.932Z,50.80
2018-06-19T09:52:30.545Z,52.40
2018-06-19T09:55:07.427Z,52.60
2018-06-19T09:57:44.629Z,54.30
2018-06-19T10:00:27.022Z,54.20
2018-06-19T10:03:04.567Z,53.50
2018-06-19T10:05:42.127Z,53.40
2018-06-19T10:08:19.268Z,53.30
2018-06-19T10:10:55.972Z,54.60
2018-06-19T10:13:33.003Z,55.90
2018-06-19T10:16:09.801Z,56.70
2018-06-19T10:21:23.502Z,55.70
2018-06-19T10:24:00.629Z,56.00
2018-06-19T10:26:37.781Z,55.60
2018-06-19T10:29:15.181Z,55.90
2018-06-19T10:31:51.693Z,56.50
2018-06-19T10:34:28.765Z,56.40
2018-06-19T10:37:05.766Z,56.00
2018-06-19T10:39:43.160Z,56.70
2018-06-19T10:42:19.576Z,57.50
2018-06-19T10:44:56.487Z,57.80
2018-06-19T10:47:34.398Z,57.50
2018-06-19T10:50:11.539Z,56.70
2018-06-19T10:52:48.770Z,55.50
2018-06-19T10:55:26.005Z,55.30
2018-06-19T10:58:02.780Z,56.20
2018-06-19T11:00:39.896Z,56.80
2018-06-19T11:03:16.628Z,55.00
2018-06-19T11:05:54.134Z,54.30
2018-06-19T11:08:31.129Z,53.10
2018-06-19T11:11:07.956Z,53.10
2018-06-19T11:13:44.964Z,51.50
2018-06-19T11:16:21.924Z,52.30
2018-06-19T11:18:58.780Z,52.00
2018-06-19T11:21:36.925Z,53.30
2018-06-19T11:24:14.602Z,54.00
2018-06-19T11:26:51.459Z,53.10
2018-06-19T11:29:28.348Z,52.00
2018-06-19T11:32:05.649Z,51.50
2018-06-19T11:34:42.892Z,51.20
2018-06-19T11:37:19.584Z,50.40
2018-06-19T11:42:33.533Z,50.90
2018-06-19T11:45:10.294Z,49.80
2018-06-19T11:47:47.303Z,49.20
2018-06-19T11:50:24.203Z,49.00
2018-06-19T11:53:01.129Z,49.20
2018-06-19T11:55:38.222Z,47.60
2018-06-19T11:58:15.510Z,47.10
2018-06-19T12:00:52.859Z,47.40
2018-06-19T12:06:07.566Z,48.00
2018-06-19T12:08:44.007Z,48.60
2018-06-19T12:11:20.803Z,50.00
2018-06-19T12:13:57.972Z,48.40
2018-06-19T12:16:35.506Z,49.60
2018-06-19T12:19:12.777Z,48.90
2018-06-19T12:22:09.709Z,47.50
2018-06-19T12:24:47.017Z,47.80
2018-06-19T12:27:23.557Z,49.20
2018-06-19T12:30:00.749Z,50.00
2018-06-19T12:32:38.284Z,48.80
2018-06-19T12:35:15.418Z,49.30
2018-06-19T12:37:52.366Z,49.00
2018-06-19T12:40:29.448Z,48.50
2018-06-19T12:43:06.268Z,47.50
2018-06-19T12:45:44.382Z,49.30
2018-06-19T12:48:20.995Z,50.20
2018-06-19T12:52:05.931Z,50.40
2018-06-19T12:55:21.148Z,50.20
2018-06-19T12:57:59.053Z,51.60
2018-06-19T13:00:36.390Z,52.90
2018-06-19T13:03:23.743Z,53.60
2018-06-19T13:06:11.806Z,54.40
2018-06-19T13:08:49.281Z,55.90
2018-06-19T13:11:26.304Z,59.00
2018-06-19T13:14:13.734Z,59.30
2018-06-19T13:17:01.633Z,60.10
2018-06-19T13:19:49.594Z,60.30
2018-06-19T13:22:26.501Z,60.70
2018-06-19T13:25:03.872Z,60.50
2018-06-19T13:27:41.281Z,60.50
2018-06-19T13:30:29.237Z,61.30
2018-06-19T13:33:06.497Z,61.90
2018-06-19T13:35:43.332Z,62.60
2018-06-19T13:38:20.057Z,63.20
2018-06-19T13:41:37.911Z,63.50
2018-06-19T13:44:25.629Z,63.50
2018-06-19T13:47:04.161Z,64.80
2018-06-19T13:49:41.246Z,65.90
2018-06-19T13:52:18.234Z,65.90
2018-06-19T13:55:04.688Z,64.80
2018-06-19T13:57:52.510Z,64.80
2018-06-19T14:00:29.823Z,65.00
2018-06-19T14:03:06.892Z,65.70
2018-06-19T14:05:44.238Z,66.10
2018-06-19T14:08:36.341Z,67.00
2018-06-19T14:11:23.795Z,67.80
2018-06-19T14:14:01.226Z,67.50
2018-06-19T14:16:37.935Z,68.40
2018-06-19T14:19:16.390Z,70.70
2018-06-19T14:21:54.828Z,71.60
2018-06-19T14:24:31.800Z,71.30
2018-06-19T14:27:08.832Z,71.60
2018-06-19T14:29:46.139Z,72.20
2018-06-19T14:32:22.996Z,72.70
2018-06-19T14:35:00.066Z,73.40
2018-06-19T14:37:37.113Z,73.70
2018-06-19T14:40:14.517Z,73.50
2018-06-19T14:42:52.042Z,72.70
2018-06-19T14:45:29.085Z,70.60
2018-06-19T14:48:05.865Z,70.40
2018-06-19T14:50:44.356Z,71.30
2018-06-19T14:53:21.616Z,72.00
2018-06-19T14:56:02.091Z,71.70
2018-06-19T14:58:39.087Z,71.10
2018-06-19T15:01:16.039Z,72.00
2018-06-19T15:03:52.815Z,72.30
2018-06-19T15:06:30.053Z,72.50
2018-06-19T15:09:10.357Z,71.60
2018-06-19T15:11:46.736Z,72.00
2018-06-19T15:14:23.829Z,72.30
2018-06-19T15:17:00.745Z,72.60
2018-06-19T15:19:37.605Z,72.90
2018-06-19T15:22:14.669Z,73.30
2018-06-19T15:24:51.660Z,71.20
2018-06-19T15:27:28.606Z,72.90
2018-06-19T15:30:05.600Z,73.30
2018-06-19T15:32:42.565Z,71.70
2018-06-19T15:35:19.562Z,73.00
2018-06-19T15:37:56.531Z,73.90
2018-06-19T15:40:33.584Z,72.50
2018-06-19T15:45:47.393Z,73.50
2018-06-19T15:48:24.354Z,73.60
2018-06-19T15:51:01.076Z,72.80
2018-06-19T15:53:38.429Z,73.00
2018-06-19T15:56:15.024Z,74.60
2018-06-19T15:58:51.926Z,74.20
2018-06-19T16:01:28.957Z,74.20
2018-06-19T16:04:05.891Z,74.50
2018-06-19T16:06:42.774Z,75.20
2018-06-19T16:09:19.988Z,75.60
2018-06-19T16:11:56.632Z,74.80
2018-06-19T16:14:33.554Z,74.90
2018-06-19T16:17:10.539Z,74.30
2018-06-19T16:19:47.671Z,73.20
2018-06-19T16:22:24.340Z,72.20
2018-06-19T16:25:01.725Z,72.00
2018-06-19T16:27:38.339Z,72.50
2018-06-19T16:30:15.392Z,72.40
2018-06-19T16:32:52.170Z,73.00
2018-06-19T16:35:29.328Z,73.20
2018-06-19T16:38:06.374Z,71.90
2018-06-19T16:40:43.188Z,72.10
2018-06-19T16:43:20.106Z,70.90
2018-06-19T16:45:56.988Z,71.10
2018-06-19T16:48:34.103Z,71.20
2018-06-19T16:51:10.508Z,71.60
2018-06-19T16:53:47.332Z,71.80
2018-06-19T16:56:24.396Z,71.80
2018-06-19T16:59:01.198Z,71.30
2018-06-19T17:01:38.211Z,71.50
2018-06-19T17:04:15.183Z,71.10
2018-06-19T17:06:52.565Z,71.80
2018-06-19T17:09:29.492Z,71.80
2018-06-19T17:12:06.404Z,72.40
2018-06-19T17:14:42.971Z,72.10
2018-06-19T17:17:19.905Z,73.00
2018-06-19T17:19:57.652Z,73.00
2018-06-19T17:22:34.293Z,73.30
2018-06-19T17:25:11.121Z,71.60
2018-06-19T17:27:47.948Z,71.80
2018-06-19T17:30:26.309Z,72.60
2018-06-19T17:33:02.720Z,72.60
2018-06-19T17:35:40.054Z,72.70
2018-06-19T17:38:16.994Z,73.40
2018-06-19T17:40:53.986Z,73.10
2018-06-19T17:43:30.857Z,71.90
2018-06-19T17:46:08.077Z,72.80
2018-06-19T17:48:44.596Z,72.70
2018-06-19T17:51:22.563Z,72.40
2018-06-19T17:54:00.477Z,72.50
2018-06-19T17:56:37.476Z,72.50
2018-06-19T17:59:14.243Z,72.80
2018-06-19T18:01:51.077Z,73.20
2018-06-19T18:04:28.429Z,73.40
2018-06-19T18:07:05.286Z,73.60
2018-06-19T18:09:43.286Z,73.10
2018-06-19T18:12:20.653Z,73.30
2018-06-19T18:14:57.774Z,73.50
2018-06-19T18:17:36.362Z,73.80
2018-06-19T18:20:13.368Z,74.20
2018-06-19T18:22:50.128Z,74.80
2018-06-19T18:25:26.861Z,75.40
2018-06-19T18:28:03.869Z,75.70
2018-06-19T18:30:40.657Z,75.50
2018-06-19T18:33:18.536Z,75.50
2018-06-19T18:35:55.603Z,76.20
2018-06-19T18:38:32.601Z,77.10
2018-06-19T18:41:09.504Z,77.90
2018-06-19T18:43:46.275Z,78.10
2018-06-19T18:46:23.743Z,78.20
2018-06-19T18:49:00.890Z,78.50
2018-06-19T18:51:38.362Z,79.00
2018-06-19T18:54:15.956Z,79.80
2018-06-19T18:56:54.098Z,80.20
2018-06-19T18:59:31.192Z,79.90
2018-06-19T19:02:08.189Z,79.60
2018-06-19T19:04:45.034Z,80.70
2018-06-19T19:07:21.988Z,80.90
2018-06-19T19:10:03.845Z,80.40
2018-06-19T19:12:40.591Z,80.80
2018-06-19T19:15:22.796Z,81.30
2018-06-19T19:18:04.145Z,82.00
2018-06-19T19:20:44.633Z,82.40
2018-06-19T19:23:21.251Z,83.10
2018-06-19T19:25:58.291Z,83.30
2018-06-19T19:28:39.828Z,83.60
2018-06-19T19:31:16.733Z,84.50
2018-06-19T19:33:54.322Z,85.00
2018-06-19T19:36:35.920Z,84.80
2018-06-19T19:39:17.573Z,85.60
2018-06-19T19:41:54.380Z,87.30
2018-06-19T19:44:31.907Z,88.80
2018-06-19T19:49:21.356Z,89.70
2018-06-19T19:51:58.850Z,89.50
2018-06-19T19:54:36.073Z,89.90
2018-06-19T19:57:18.064Z,90.20
2018-06-19T19:59:56.259Z,90.40
2018-06-19T20:02:32.593Z,90.60
2018-06-19T20:05:10.690Z,91.00
2018-06-19T20:07:48.047Z,91.40
2018-06-19T20:10:25.210Z,91.80
2018-06-19T20:13:02.184Z,92.00
2018-06-19T20:15:39.827Z,92.00
2018-06-19T20:18:16.659Z,92.30
2018-06-19T20:20:53.560Z,93.00
2018-06-19T20:23:30.270Z,93.20
2018-06-19T20:26:07.337Z,93.50
2018-06-19T20:28:43.939Z,93.70
2018-06-19T20:31:21.533Z,94.00
2018-06-19T20:33:58.576Z,94.00
2018-06-19T20:36:36.074Z,94.10
2018-06-19T20:39:13.216Z,94.30
2018-06-19T20:41:50.894Z,94.20
2018-06-19T20:44:27.804Z,94.00
2018-06-19T20:49:41.404Z,97.20
2018-06-19T20:52:18.215Z,99.10
2018-06-19T20:54:56.261Z,99.90
2018-06-19T20:57:33.782Z,99.90
2018-06-19T21:00:10.590Z,99.90
2018-06-19T21:02:48.229Z,99.90
2018-06-19T21:05:26.407Z,99.90
2018-06-19T21:08:03.607Z,99.90
2018-06-19T21:10:41.234Z,99.90
2018-06-19T21:13:18.197Z,99.90
2018-06-19T21:15:56.407Z,99.90
2018-06-19T21:18:33.848Z,99.90
2018-06-19T21:21:11.290Z,99.90
2018-06-19T21:23:48.925Z,99.90
2018-06-19T21:26:26.154Z,99.90
2018-06-19T21:29:03.380Z,99.90
2018-06-19T21:31:40.180Z,99.90
2018-06-19T21:34:17.490Z,99.90
2018-06-19T21:36:54.283Z,99.90
2018-06-19T21:39:31.722Z,99.90
2018-06-19T21:42:08.735Z,99.90
2018-06-19T21:44:45.848Z,99.90
2018-06-19T21:47:23.012Z,99.90
2018-06-19T21:50:00.017Z,99.90
2018-06-19T21:52:36.553Z,99.90
2018-06-19T21:55:13.899Z,99.90
2018-06-19T21:57:50.987Z,99.90
2018-06-19T22:00:29.543Z,99.90
2018-06-19T22:03:06.619Z,99.90
2018-06-19T22:05:44.416Z,99.90
2018-06-19T22:08:27.354Z,99.90
2018-06-19T22:11:05.724Z,99.90
2018-06-19T22:13:45.334Z,99.90
2018-06-19T22:16:24.048Z,99.90
2018-06-19T22:19:01.694Z,99.90
2018-06-19T22:21:39.641Z,99.90
2018-06-19T22:24:16.924Z,99.90
2018-06-19T22:26:54.019Z,99.90
2018-06-19T22:29:30.556Z,99.90
2018-06-19T22:32:09.571Z,99.90
2018-06-19T22:34:46.882Z,99.90
2018-06-19T22:37:25.119Z,99.90
2018-06-19T22:40:02.230Z,99.90
2018-06-19T22:42:48.932Z,99.90
2018-06-19T22:45:25.985Z,99.90
2018-06-19T22:48:03.893Z,99.90
2018-06-19T22:50:41.071Z,99.90
2018-06-19T22:53:17.985Z,99.90
2018-06-19T22:55:55.744Z,99.90
2018-06-19T22:58:33.058Z,99.90
2018-06-19T23:01:11.037Z,99.90
2018-06-19T23:03:48.914Z,99.90
2018-06-19T23:09:04.761Z,99.90
2018-06-19T23:11:43.980Z,99.90
2018-06-19T23:14:21.425Z,99.90
2018-06-19T23:16:58.769Z,99.90
2018-06-19T23:19:36.547Z,99.90
2018-06-19T23:22:14.718Z,99.90
2018-06-19T23:24:52.389Z,99.90
2018-06-19T23:27:29.691Z,99.90
2018-06-19T23:30:08.418Z,99.90
2018-06-19T23:32:45.880Z,99.90
2018-06-19T23:35:22.963Z,99.90
2018-06-19T23:38:00.614Z,99.90
2018-06-19T23:40:39.079Z,99.90
2018-06-19T23:43:16.054Z,99.90
2018-06-19T23:45:52.691Z,99.90
2018-06-19T23:48:29.791Z,99.90
2018-06-19T23:51:06.844Z,99.90
2018-06-19T23:53:44.050Z,99.90
2018-06-19T23:56:21.532Z,99.90
2018-06-19T23:58:58.543Z,99.90
